sensor_id;sensor_type;location;lat;lon;timestamp;temperature;humidity
51253;DHT22;38936;47.808;19.936;2022-07-01T00:00:24;25.00;62.70
51253;DHT22;38936;47.808;19.936;2022-07-01T00:02:49;24.90;62.90
51253;DHT22;38936;47.808;19.936;2022-07-01T00:05:15;24.90;63.70
51253;DHT22;38936;47.808;19.936;2022-07-01T00:07:40;24.90;64.80
51253;DHT22;38936;47.808;19.936;2022-07-01T00:10:07;24.90;64.50
51253;DHT22;38936;47.808;19.936;2022-07-01T00:12:32;24.80;64.90
51253;DHT22;38936;47.808;19.936;2022-07-01T00:14:58;24.80;65.60
51253;DHT22;38936;47.808;19.936;2022-07-01T00:17:24;24.70;66.20
51253;DHT22;38936;47.808;19.936;2022-07-01T00:19:49;24.70;66.70
51253;DHT22;38936;47.808;19.936;2022-07-01T00:22:16;24.70;67.30
51253;DHT22;38936;47.808;19.936;2022-07-01T00:24:41;24.70;67.90
51253;DHT22;38936;47.808;19.936;2022-07-01T00:27:07;24.70;68.60
51253;DHT22;38936;47.808;19.936;2022-07-01T00:29:32;24.60;69.10
51253;DHT22;38936;47.808;19.936;2022-07-01T00:31:59;24.60;69.60
51253;DHT22;38936;47.808;19.936;2022-07-01T00:34:25;24.60;70.40
51253;DHT22;38936;47.808;19.936;2022-07-01T00:36:50;24.60;71.10
51253;DHT22;38936;47.808;19.936;2022-07-01T00:39:16;24.50;72.10
51253;DHT22;38936;47.808;19.936;2022-07-01T00:41:42;24.60;72.60
51253;DHT22;38936;47.808;19.936;2022-07-01T00:44:16;24.60;73.00
51253;DHT22;38936;47.808;19.936;2022-07-01T00:46:42;24.50;73.80
51253;DHT22;38936;47.808;19.936;2022-07-01T00:49:08;24.50;73.90
51253;DHT22;38936;47.808;19.936;2022-07-01T00:51:35;24.50;74.60
51253;DHT22;38936;47.808;19.936;2022-07-01T00:54:01;24.40;74.90
51253;DHT22;38936;47.808;19.936;2022-07-01T00:56:26;24.40;75.50
51253;DHT22;38936;47.808;19.936;2022-07-01T00:58:52;24.40;76.40
51253;DHT22;38936;47.808;19.936;2022-07-01T01:01:18;24.30;77.00
51253;DHT22;38936;47.808;19.936;2022-07-01T01:03:45;24.30;77.60
51253;DHT22;38936;47.808;19.936;2022-07-01T01:06:11;24.30;78.20
51253;DHT22;38936;47.808;19.936;2022-07-01T01:08:37;24.30;78.90
51253;DHT22;38936;47.808;19.936;2022-07-01T01:11:04;24.30;79.40
51253;DHT22;38936;47.808;19.936;2022-07-01T01:13:29;24.20;80.90
51253;DHT22;38936;47.808;19.936;2022-07-01T01:15:55;24.20;82.30
51253;DHT22;38936;47.808;19.936;2022-07-01T01:18:21;24.10;83.70
51253;DHT22;38936;47.808;19.936;2022-07-01T01:20:46;24.10;85.40
51253;DHT22;38936;47.808;19.936;2022-07-01T01:23:12;24.00;87.10
51253;DHT22;38936;47.808;19.936;2022-07-01T01:25:38;24.00;88.40
51253;DHT22;38936;47.808;19.936;2022-07-01T01:28:03;23.90;90.00
51253;DHT22;38936;47.808;19.936;2022-07-01T01:30:29;23.90;90.70
51253;DHT22;38936;47.808;19.936;2022-07-01T01:32:55;23.90;91.30
51253;DHT22;38936;47.808;19.936;2022-07-01T01:35:21;23.90;91.80
51253;DHT22;38936;47.808;19.936;2022-07-01T01:37:47;23.90;92.30
51253;DHT22;38936;47.808;19.936;2022-07-01T01:40:14;23.90;92.80
51253;DHT22;38936;47.808;19.936;2022-07-01T01:42:45;23.90;93.30
51253;DHT22;38936;47.808;19.936;2022-07-01T01:45:11;23.80;93.80
51253;DHT22;38936;47.808;19.936;2022-07-01T01:47:37;23.80;94.40
51253;DHT22;38936;47.808;19.936;2022-07-01T01:50:05;23.80;94.90
51253;DHT22;38936;47.808;19.936;2022-07-01T01:52:31;23.80;95.60
51253;DHT22;38936;47.808;19.936;2022-07-01T01:54:57;23.70;96.00
51253;DHT22;38936;47.808;19.936;2022-07-01T01:57:22;23.80;96.40
51253;DHT22;38936;47.808;19.936;2022-07-01T01:59:48;23.70;96.90
51253;DHT22;38936;47.808;19.936;2022-07-01T02:02:14;23.70;97.40
51253;DHT22;38936;47.808;19.936;2022-07-01T02:04:39;23.70;98.10
51253;DHT22;38936;47.808;19.936;2022-07-01T02:07:06;23.60;98.60
51253;DHT22;38936;47.808;19.936;2022-07-01T02:09:32;23.60;99.10
51253;DHT22;38936;47.808;19.936;2022-07-01T02:11:57;23.60;99.50
51253;DHT22;38936;47.808;19.936;2022-07-01T02:14:23;23.60;99.80
51253;DHT22;38936;47.808;19.936;2022-07-01T02:16:49;23.60;99.90
51253;DHT22;38936;47.808;19.936;2022-07-01T02:19:14;23.60;99.90
51253;DHT22;38936;47.808;19.936;2022-07-01T02:21:40;23.60;99.90
51253;DHT22;38936;47.808;19.936;2022-07-01T02:24:06;23.60;99.90
51253;DHT22;38936;47.808;19.936;2022-07-01T02:26:32;23.50;99.90
51253;DHT22;38936;47.808;19.936;2022-07-01T02:28:57;23.60;99.90
51253;DHT22;38936;47.808;19.936;2022-07-01T02:31:23;23.50;99.90
51253;DHT22;38936;47.808;19.936;2022-07-01T02:33:48;23.50;99.90
51253;DHT22;38936;47.808;19.936;2022-07-01T02:36:14;23.50;99.90
51253;DHT22;38936;47.808;19.936;2022-07-01T02:38:40;23.40;99.90
51253;DHT22;38936;47.808;19.936;2022-07-01T02:41:05;23.30;99.90
51253;DHT22;38936;47.808;19.936;2022-07-01T02:43:31;23.30;99.90
51253;DHT22;38936;47.808;19.936;2022-07-01T02:45:57;23.30;99.90
51253;DHT22;38936;47.808;19.936;2022-07-01T02:48:23;23.30;99.90
51253;DHT22;38936;47.808;19.936;2022-07-01T02:50:49;23.30;99.90
51253;DHT22;38936;47.808;19.936;2022-07-01T02:53:15;23.30;99.90
51253;DHT22;38936;47.808;19.936;2022-07-01T02:55:40;23.30;99.90
51253;DHT22;38936;47.808;19.936;2022-07-01T02:58:06;23.20;99.90
51253;DHT22;38936;47.808;19.936;2022-07-01T03:00:32;23.20;99.90
51253;DHT22;38936;47.808;19.936;2022-07-01T03:02:57;23.20;99.90
51253;DHT22;38936;47.808;19.936;2022-07-01T03:05:23;23.10;99.90
51253;DHT22;38936;47.808;19.936;2022-07-01T03:07:49;23.10;99.90
51253;DHT22;38936;47.808;19.936;2022-07-01T03:10:15;23.10;99.90
51253;DHT22;38936;47.808;19.936;2022-07-01T03:12:40;23.10;99.90
51253;DHT22;38936;47.808;19.936;2022-07-01T03:15:14;23.10;99.90
51253;DHT22;38936;47.808;19.936;2022-07-01T03:17:42;23.20;99.90
51253;DHT22;38936;47.808;19.936;2022-07-01T03:20:13;23.20;99.90
51253;DHT22;38936;47.808;19.936;2022-07-01T03:22:40;23.20;99.90
51253;DHT22;38936;47.808;19.936;2022-07-01T03:25:06;23.20;99.90
51253;DHT22;38936;47.808;19.936;2022-07-01T03:27:32;23.30;99.90
51253;DHT22;38936;47.808;19.936;2022-07-01T03:29:59;23.30;99.90
51253;DHT22;38936;47.808;19.936;2022-07-01T03:32:25;23.40;99.90
51253;DHT22;38936;47.808;19.936;2022-07-01T03:34:51;23.50;99.90
51253;DHT22;38936;47.808;19.936;2022-07-01T03:37:18;23.50;99.90
51253;DHT22;38936;47.808;19.936;2022-07-01T03:39:44;23.50;99.90
51253;DHT22;38936;47.808;19.936;2022-07-01T03:42:10;23.60;99.90
51253;DHT22;38936;47.808;19.936;2022-07-01T03:44:36;23.60;99.90
51253;DHT22;38936;47.808;19.936;2022-07-01T03:47:03;23.70;99.90
51253;DHT22;38936;47.808;19.936;2022-07-01T03:49:31;23.80;99.90
51253;DHT22;38936;47.808;19.936;2022-07-01T03:51:57;23.90;99.90
51253;DHT22;38936;47.808;19.936;2022-07-01T03:54:23;24.00;99.90
51253;DHT22;38936;47.808;19.936;2022-07-01T03:59:25;24.20;99.90
51253;DHT22;38936;47.808;19.936;2022-07-01T04:01:52;24.40;99.90
51253;DHT22;38936;47.808;19.936;2022-07-01T04:04:18;24.50;99.90
51253;DHT22;38936;47.808;19.936;2022-07-01T04:06:45;24.70;99.90
51253;DHT22;38936;47.808;19.936;2022-07-01T04:09:12;25.00;99.90
51253;DHT22;38936;47.808;19.936;2022-07-01T04:11:40;25.20;99.90
51253;DHT22;38936;47.808;19.936;2022-07-01T04:14:07;25.50;99.90
51253;DHT22;38936;47.808;19.936;2022-07-01T04:16:33;25.80;99.90
51253;DHT22;38936;47.808;19.936;2022-07-01T04:18:58;26.00;99.90
51253;DHT22;38936;47.808;19.936;2022-07-01T04:21:24;26.10;99.90
51253;DHT22;38936;47.808;19.936;2022-07-01T04:24:08;26.20;99.90
51253;DHT22;38936;47.808;19.936;2022-07-01T04:26:34;26.30;99.90
51253;DHT22;38936;47.808;19.936;2022-07-01T04:29:00;26.40;99.90
51253;DHT22;38936;47.808;19.936;2022-07-01T04:31:26;26.60;99.90
51253;DHT22;38936;47.808;19.936;2022-07-01T04:33:52;26.80;99.90
51253;DHT22;38936;47.808;19.936;2022-07-01T04:36:18;26.80;99.90
51253;DHT22;38936;47.808;19.936;2022-07-01T04:38:43;27.00;99.90
51253;DHT22;38936;47.808;19.936;2022-07-01T04:41:09;27.10;99.90
51253;DHT22;38936;47.808;19.936;2022-07-01T04:43:53;27.30;99.90
51253;DHT22;38936;47.808;19.936;2022-07-01T04:46:19;27.50;99.60
51253;DHT22;38936;47.808;19.936;2022-07-01T04:48:44;27.70;99.50
51253;DHT22;38936;47.808;19.936;2022-07-01T04:51:10;27.80;99.50
51253;DHT22;38936;47.808;19.936;2022-07-01T04:53:35;28.00;99.40
51253;DHT22;38936;47.808;19.936;2022-07-01T04:56:01;28.10;99.10
51253;DHT22;38936;47.808;19.936;2022-07-01T04:58:27;28.20;99.10
51253;DHT22;38936;47.808;19.936;2022-07-01T05:00:52;28.30;98.90
51253;DHT22;38936;47.808;19.936;2022-07-01T05:03:18;28.40;99.10
51253;DHT22;38936;47.808;19.936;2022-07-01T05:05:44;28.50;98.90
51253;DHT22;38936;47.808;19.936;2022-07-01T05:08:10;28.60;98.60
51253;DHT22;38936;47.808;19.936;2022-07-01T05:10:36;28.70;98.10
51253;DHT22;38936;47.808;19.936;2022-07-01T05:13:02;28.90;97.70
51253;DHT22;38936;47.808;19.936;2022-07-01T05:15:28;29.10;97.40
51253;DHT22;38936;47.808;19.936;2022-07-01T05:17:54;29.20;97.00
51253;DHT22;38936;47.808;19.936;2022-07-01T05:20:38;29.40;96.20
51253;DHT22;38936;47.808;19.936;2022-07-01T05:23:22;29.60;95.40
51253;DHT22;38936;47.808;19.936;2022-07-01T05:25:48;29.80;94.80
51253;DHT22;38936;47.808;19.936;2022-07-01T05:28:14;30.00;94.30
51253;DHT22;38936;47.808;19.936;2022-07-01T05:30:39;30.20;93.40
51253;DHT22;38936;47.808;19.936;2022-07-01T05:33:05;30.30;92.70
51253;DHT22;38936;47.808;19.936;2022-07-01T05:35:31;30.40;92.10
51253;DHT22;38936;47.808;19.936;2022-07-01T05:37:57;30.50;91.40
51253;DHT22;38936;47.808;19.936;2022-07-01T05:40:23;30.60;91.10
51253;DHT22;38936;47.808;19.936;2022-07-01T05:42:48;30.70;90.70
51253;DHT22;38936;47.808;19.936;2022-07-01T05:45:14;30.80;90.00
51253;DHT22;38936;47.808;19.936;2022-07-01T05:47:40;31.00;89.60
51253;DHT22;38936;47.808;19.936;2022-07-01T05:50:06;31.30;88.90
51253;DHT22;38936;47.808;19.936;2022-07-01T05:52:32;31.60;87.40
51253;DHT22;38936;47.808;19.936;2022-07-01T05:54:58;32.00;85.40
51253;DHT22;38936;47.808;19.936;2022-07-01T05:57:23;32.50;83.00
51253;DHT22;38936;47.808;19.936;2022-07-01T05:59:49;33.50;77.80
51253;DHT22;38936;47.808;19.936;2022-07-01T06:02:15;35.00;70.60
51253;DHT22;38936;47.808;19.936;2022-07-01T06:04:41;36.40;63.90
51253;DHT22;38936;47.808;19.936;2022-07-01T06:07:09;37.60;58.10
51253;DHT22;38936;47.808;19.936;2022-07-01T06:09:36;38.70;53.20
51253;DHT22;38936;47.808;19.936;2022-07-01T06:12:02;39.50;49.90
51253;DHT22;38936;47.808;19.936;2022-07-01T06:14:28;40.40;46.90
51253;DHT22;38936;47.808;19.936;2022-07-01T06:16:53;41.10;44.60
51253;DHT22;38936;47.808;19.936;2022-07-01T06:19:19;41.60;42.70
51253;DHT22;38936;47.808;19.936;2022-07-01T06:21:46;41.80;40.70
51253;DHT22;38936;47.808;19.936;2022-07-01T06:24:11;42.10;40.00
51253;DHT22;38936;47.808;19.936;2022-07-01T06:26:37;42.40;39.40
51253;DHT22;38936;47.808;19.936;2022-07-01T06:29:02;42.60;38.90
51253;DHT22;38936;47.808;19.936;2022-07-01T06:31:28;42.90;38.00
51253;DHT22;38936;47.808;19.936;2022-07-01T06:33:55;43.10;37.10
51253;DHT22;38936;47.808;19.936;2022-07-01T06:36:21;43.50;36.10
51253;DHT22;38936;47.808;19.936;2022-07-01T06:38:47;43.40;35.50
51253;DHT22;38936;47.808;19.936;2022-07-01T06:41:12;43.40;35.60
51253;DHT22;38936;47.808;19.936;2022-07-01T06:43:57;43.40;35.20
51253;DHT22;38936;47.808;19.936;2022-07-01T06:46:23;43.80;34.80
51253;DHT22;38936;47.808;19.936;2022-07-01T06:48:49;43.50;34.80
51253;DHT22;38936;47.808;19.936;2022-07-01T06:51:15;43.50;35.40
51253;DHT22;38936;47.808;19.936;2022-07-01T06:53:41;43.10;34.90
51253;DHT22;38936;47.808;19.936;2022-07-01T06:56:07;43.30;35.00
51253;DHT22;38936;47.808;19.936;2022-07-01T06:58:33;43.20;35.00
51253;DHT22;38936;47.808;19.936;2022-07-01T07:00:59;43.10;35.20
51253;DHT22;38936;47.808;19.936;2022-07-01T07:03:25;43.40;34.80
51253;DHT22;38936;47.808;19.936;2022-07-01T07:05:51;43.30;35.10
51253;DHT22;38936;47.808;19.936;2022-07-01T07:08:17;43.60;34.40
51253;DHT22;38936;47.808;19.936;2022-07-01T07:10:44;43.60;33.90
51253;DHT22;38936;47.808;19.936;2022-07-01T07:13:09;43.60;34.00
51253;DHT22;38936;47.808;19.936;2022-07-01T07:15:35;43.50;33.90
51253;DHT22;38936;47.808;19.936;2022-07-01T07:18:01;43.50;32.80
51253;DHT22;38936;47.808;19.936;2022-07-01T07:20:27;43.60;31.90
51253;DHT22;38936;47.808;19.936;2022-07-01T07:22:53;43.50;32.20
51253;DHT22;38936;47.808;19.936;2022-07-01T07:25:19;43.50;32.80
51253;DHT22;38936;47.808;19.936;2022-07-01T07:27:45;43.50;31.20
51253;DHT22;38936;47.808;19.936;2022-07-01T07:30:15;43.70;31.10
51253;DHT22;38936;47.808;19.936;2022-07-01T07:32:41;43.70;30.50
51253;DHT22;38936;47.808;19.936;2022-07-01T07:35:08;43.30;30.80
51253;DHT22;38936;47.808;19.936;2022-07-01T07:37:33;43.40;31.00
51253;DHT22;38936;47.808;19.936;2022-07-01T07:40:00;43.60;31.40
51253;DHT22;38936;47.808;19.936;2022-07-01T07:42:26;43.50;31.40
51253;DHT22;38936;47.808;19.936;2022-07-01T07:44:52;43.40;31.20
51253;DHT22;38936;47.808;19.936;2022-07-01T07:47:18;43.40;31.60
51253;DHT22;38936;47.808;19.936;2022-07-01T07:49:44;43.50;31.60
51253;DHT22;38936;47.808;19.936;2022-07-01T07:52:10;43.50;31.80
51253;DHT22;38936;47.808;19.936;2022-07-01T07:54:36;43.20;31.90
51253;DHT22;38936;47.808;19.936;2022-07-01T07:57:01;42.80;31.40
51253;DHT22;38936;47.808;19.936;2022-07-01T07:59:27;43.00;31.00
51253;DHT22;38936;47.808;19.936;2022-07-01T08:01:52;43.00;31.50
51253;DHT22;38936;47.808;19.936;2022-07-01T08:04:18;43.10;31.50
51253;DHT22;38936;47.808;19.936;2022-07-01T08:06:44;43.20;31.90
51253;DHT22;38936;47.808;19.936;2022-07-01T08:09:09;43.40;31.90
51253;DHT22;38936;47.808;19.936;2022-07-01T08:11:35;43.40;32.40
51253;DHT22;38936;47.808;19.936;2022-07-01T08:14:01;43.50;31.90
51253;DHT22;38936;47.808;19.936;2022-07-01T08:16:26;43.60;32.00
51253;DHT22;38936;47.808;19.936;2022-07-01T08:18:52;43.60;31.80
51253;DHT22;38936;47.808;19.936;2022-07-01T08:21:18;43.60;32.10
51253;DHT22;38936;47.808;19.936;2022-07-01T08:23:43;43.50;31.60
51253;DHT22;38936;47.808;19.936;2022-07-01T08:26:09;43.50;31.60
51253;DHT22;38936;47.808;19.936;2022-07-01T08:28:37;43.70;31.70
51253;DHT22;38936;47.808;19.936;2022-07-01T08:31:03;43.50;31.30
51253;DHT22;38936;47.808;19.936;2022-07-01T08:33:29;43.50;31.30
51253;DHT22;38936;47.808;19.936;2022-07-01T08:35:54;43.40;31.70
51253;DHT22;38936;47.808;19.936;2022-07-01T08:38:20;43.50;31.60
51253;DHT22;38936;47.808;19.936;2022-07-01T08:40:46;43.60;31.40
51253;DHT22;38936;47.808;19.936;2022-07-01T08:43:12;43.70;31.90
51253;DHT22;38936;47.808;19.936;2022-07-01T08:45:38;43.80;31.60
51253;DHT22;38936;47.808;19.936;2022-07-01T08:48:05;43.80;31.80
51253;DHT22;38936;47.808;19.936;2022-07-01T08:50:38;44.00;31.90
51253;DHT22;38936;47.808;19.936;2022-07-01T08:53:06;44.10;31.60
51253;DHT22;38936;47.808;19.936;2022-07-01T08:55:32;44.20;30.50
51253;DHT22;38936;47.808;19.936;2022-07-01T08:57:58;43.90;30.80
51253;DHT22;38936;47.808;19.936;2022-07-01T09:00:30;44.00;30.60
51253;DHT22;38936;47.808;19.936;2022-07-01T09:03:01;43.70;31.20
51253;DHT22;38936;47.808;19.936;2022-07-01T09:05:30;43.60;31.70
51253;DHT22;38936;47.808;19.936;2022-07-01T09:08:01;43.50;31.40
51253;DHT22;38936;47.808;19.936;2022-07-01T09:10:27;43.60;30.00
51253;DHT22;38936;47.808;19.936;2022-07-01T09:12:56;43.40;30.10
51253;DHT22;38936;47.808;19.936;2022-07-01T09:15:24;43.50;30.40
51253;DHT22;38936;47.808;19.936;2022-07-01T09:18:03;43.50;30.20
51253;DHT22;38936;47.808;19.936;2022-07-01T09:20:37;43.40;30.40
51253;DHT22;38936;47.808;19.936;2022-07-01T09:23:10;43.60;30.80
51253;DHT22;38936;47.808;19.936;2022-07-01T09:25:40;43.70;30.80
51253;DHT22;38936;47.808;19.936;2022-07-01T09:28:23;43.80;30.70
51253;DHT22;38936;47.808;19.936;2022-07-01T09:30:51;44.00;30.20
51253;DHT22;38936;47.808;19.936;2022-07-01T09:33:20;43.80;30.90
51253;DHT22;38936;47.808;19.936;2022-07-01T09:35:47;43.80;31.00
51253;DHT22;38936;47.808;19.936;2022-07-01T09:38:16;44.00;31.10
51253;DHT22;38936;47.808;19.936;2022-07-01T09:41:03;44.10;30.30
51253;DHT22;38936;47.808;19.936;2022-07-01T09:43:30;44.30;30.20
51253;DHT22;38936;47.808;19.936;2022-07-01T09:51:04;43.70;30.60
51253;DHT22;38936;47.808;19.936;2022-07-01T09:53:30;43.60;31.00
51253;DHT22;38936;47.808;19.936;2022-07-01T09:55:59;43.30;30.50
51253;DHT22;38936;47.808;19.936;2022-07-01T09:58:25;43.00;31.90
51253;DHT22;38936;47.808;19.936;2022-07-01T10:00:52;43.00;31.90
51253;DHT22;38936;47.808;19.936;2022-07-01T10:03:19;43.10;31.30
51253;DHT22;38936;47.808;19.936;2022-07-01T10:13:44;41.90;32.40
51253;DHT22;38936;47.808;19.936;2022-07-01T10:16:11;41.50;33.20
51253;DHT22;38936;47.808;19.936;2022-07-01T10:18:37;41.30;33.40
51253;DHT22;38936;47.808;19.936;2022-07-01T10:21:03;41.10;34.00
51253;DHT22;38936;47.808;19.936;2022-07-01T10:23:41;40.70;34.50
51253;DHT22;38936;47.808;19.936;2022-07-01T10:26:07;40.50;33.70
51253;DHT22;38936;47.808;19.936;2022-07-01T10:31:08;40.00;34.30
51253;DHT22;38936;47.808;19.936;2022-07-01T10:36:09;39.70;35.10
51253;DHT22;38936;47.808;19.936;2022-07-01T10:38:35;39.60;35.70
51253;DHT22;38936;47.808;19.936;2022-07-01T10:41:25;39.60;35.70
51253;DHT22;38936;47.808;19.936;2022-07-01T10:43:53;39.50;35.60
51253;DHT22;38936;47.808;19.936;2022-07-01T10:46:38;39.40;34.60
51253;DHT22;38936;47.808;19.936;2022-07-01T10:49:17;39.10;35.50
51253;DHT22;38936;47.808;19.936;2022-07-01T10:51:53;38.90;35.70
51253;DHT22;38936;47.808;19.936;2022-07-01T11:02:26;38.30;36.80
51253;DHT22;38936;47.808;19.936;2022-07-01T11:04:56;38.30;36.40
51253;DHT22;38936;47.808;19.936;2022-07-01T11:07:28;38.30;36.20
51253;DHT22;38936;47.808;19.936;2022-07-01T11:09:54;38.30;35.70
51253;DHT22;38936;47.808;19.936;2022-07-01T11:12:21;38.30;36.30
51253;DHT22;38936;47.808;19.936;2022-07-01T11:14:51;38.20;36.80
51253;DHT22;38936;47.808;19.936;2022-07-01T11:17:18;38.10;36.00
51253;DHT22;38936;47.808;19.936;2022-07-01T11:19:52;38.00;36.10
51253;DHT22;38936;47.808;19.936;2022-07-01T11:22:26;38.10;36.40
51253;DHT22;38936;47.808;19.936;2022-07-01T11:24:55;38.00;36.40
51253;DHT22;38936;47.808;19.936;2022-07-01T11:27:21;38.00;37.10
51253;DHT22;38936;47.808;19.936;2022-07-01T11:29:57;38.00;36.40
51253;DHT22;38936;47.808;19.936;2022-07-01T11:32:38;38.10;36.00
51253;DHT22;38936;47.808;19.936;2022-07-01T11:35:06;38.10;35.80
51253;DHT22;38936;47.808;19.936;2022-07-01T11:37:51;38.10;36.00
51253;DHT22;38936;47.808;19.936;2022-07-01T11:40:35;38.20;35.50
51253;DHT22;38936;47.808;19.936;2022-07-01T11:43:21;38.10;35.10
51253;DHT22;38936;47.808;19.936;2022-07-01T11:45:47;38.30;35.10
51253;DHT22;38936;47.808;19.936;2022-07-01T11:50:59;38.20;34.80
51253;DHT22;38936;47.808;19.936;2022-07-01T11:53:25;38.30;35.30
51253;DHT22;38936;47.808;19.936;2022-07-01T11:55:51;38.50;35.00
51253;DHT22;38936;47.808;19.936;2022-07-01T11:58:17;38.60;34.60
51253;DHT22;38936;47.808;19.936;2022-07-01T12:00:42;38.70;34.80
51253;DHT22;38936;47.808;19.936;2022-07-01T12:03:08;38.70;35.30
51253;DHT22;38936;47.808;19.936;2022-07-01T12:05:35;38.70;34.60
51253;DHT22;38936;47.808;19.936;2022-07-01T12:08:02;38.50;34.00
51253;DHT22;38936;47.808;19.936;2022-07-01T12:10:28;38.50;34.10
51253;DHT22;38936;47.808;19.936;2022-07-01T12:12:54;38.50;33.10
51253;DHT22;38936;47.808;19.936;2022-07-01T12:15:20;38.50;33.60
51253;DHT22;38936;47.808;19.936;2022-07-01T12:17:46;38.60;33.80
51253;DHT22;38936;47.808;19.936;2022-07-01T12:20:12;38.70;33.70
51253;DHT22;38936;47.808;19.936;2022-07-01T12:22:38;38.90;34.10
51253;DHT22;38936;47.808;19.936;2022-07-01T12:25:13;39.00;34.20
51253;DHT22;38936;47.808;19.936;2022-07-01T12:27:41;39.20;33.20
51253;DHT22;38936;47.808;19.936;2022-07-01T12:30:10;39.20;31.90
51253;DHT22;38936;47.808;19.936;2022-07-01T12:32:38;39.20;33.00
51253;DHT22;38936;47.808;19.936;2022-07-01T12:35:08;39.40;32.90
51253;DHT22;38936;47.808;19.936;2022-07-01T12:37:53;39.40;33.10
51253;DHT22;38936;47.808;19.936;2022-07-01T12:40:24;39.30;33.30
51253;DHT22;38936;47.808;19.936;2022-07-01T12:42:50;39.20;33.50
51253;DHT22;38936;47.808;19.936;2022-07-01T12:45:25;39.20;32.30
51253;DHT22;38936;47.808;19.936;2022-07-01T12:47:53;39.10;32.50
51253;DHT22;38936;47.808;19.936;2022-07-01T12:50:27;38.80;32.80
51253;DHT22;38936;47.808;19.936;2022-07-01T12:53:17;38.60;33.40
51253;DHT22;38936;47.808;19.936;2022-07-01T12:55:45;38.40;33.60
51253;DHT22;38936;47.808;19.936;2022-07-01T12:58:16;38.40;33.10
51253;DHT22;38936;47.808;19.936;2022-07-01T13:00:44;38.40;32.00
51253;DHT22;38936;47.808;19.936;2022-07-01T13:03:10;38.30;31.80
51253;DHT22;38936;47.808;19.936;2022-07-01T13:05:37;38.20;32.50
51253;DHT22;38936;47.808;19.936;2022-07-01T13:08:05;38.00;33.20
51253;DHT22;38936;47.808;19.936;2022-07-01T13:10:31;38.10;33.90
51253;DHT22;38936;47.808;19.936;2022-07-01T13:12:57;38.10;33.00
51253;DHT22;38936;47.808;19.936;2022-07-01T13:15:23;38.10;32.70
51253;DHT22;38936;47.808;19.936;2022-07-01T13:17:50;38.20;33.10
51253;DHT22;38936;47.808;19.936;2022-07-01T13:20:16;38.10;32.20
51253;DHT22;38936;47.808;19.936;2022-07-01T13:22:42;38.10;32.80
51253;DHT22;38936;47.808;19.936;2022-07-01T13:25:09;37.90;33.10
51253;DHT22;38936;47.808;19.936;2022-07-01T13:27:35;37.80;33.60
51253;DHT22;38936;47.808;19.936;2022-07-01T13:30:01;37.80;33.80
51253;DHT22;38936;47.808;19.936;2022-07-01T13:32:29;37.90;32.80
51253;DHT22;38936;47.808;19.936;2022-07-01T13:34:54;37.90;33.00
51253;DHT22;38936;47.808;19.936;2022-07-01T13:37:20;37.90;33.30
51253;DHT22;38936;47.808;19.936;2022-07-01T13:39:46;37.90;33.00
51253;DHT22;38936;47.808;19.936;2022-07-01T13:42:12;37.90;33.40
51253;DHT22;38936;47.808;19.936;2022-07-01T13:44:38;37.90;33.00
51253;DHT22;38936;47.808;19.936;2022-07-01T13:47:04;37.90;32.60
51253;DHT22;38936;47.808;19.936;2022-07-01T13:49:37;37.80;31.50
51253;DHT22;38936;47.808;19.936;2022-07-01T13:52:03;37.60;31.00
51253;DHT22;38936;47.808;19.936;2022-07-01T13:54:29;37.60;31.40
51253;DHT22;38936;47.808;19.936;2022-07-01T13:56:54;37.60;32.40
51253;DHT22;38936;47.808;19.936;2022-07-01T13:59:20;37.60;32.60
51253;DHT22;38936;47.808;19.936;2022-07-01T14:01:46;37.60;32.80
51253;DHT22;38936;47.808;19.936;2022-07-01T14:04:12;37.70;32.80
51253;DHT22;38936;47.808;19.936;2022-07-01T14:06:38;37.80;32.50
51253;DHT22;38936;47.808;19.936;2022-07-01T14:09:03;37.90;32.60
51253;DHT22;38936;47.808;19.936;2022-07-01T14:11:29;38.00;31.90
51253;DHT22;38936;47.808;19.936;2022-07-01T14:13:55;38.00;30.40
51253;DHT22;38936;47.808;19.936;2022-07-01T14:16:20;37.90;31.50
51253;DHT22;38936;47.808;19.936;2022-07-01T14:18:46;37.80;31.90
51253;DHT22;38936;47.808;19.936;2022-07-01T14:21:12;37.70;32.20
51253;DHT22;38936;47.808;19.936;2022-07-01T14:23:38;37.70;32.30
51253;DHT22;38936;47.808;19.936;2022-07-01T14:26:03;37.80;31.60
51253;DHT22;38936;47.808;19.936;2022-07-01T14:28:29;38.00;31.50
51253;DHT22;38936;47.808;19.936;2022-07-01T14:30:55;38.10;30.50
51253;DHT22;38936;47.808;19.936;2022-07-01T14:33:21;38.10;29.90
51253;DHT22;38936;47.808;19.936;2022-07-01T14:35:47;38.10;29.50
51253;DHT22;38936;47.808;19.936;2022-07-01T14:38:15;38.20;29.80
51253;DHT22;38936;47.808;19.936;2022-07-01T14:40:41;38.30;30.00
51253;DHT22;38936;47.808;19.936;2022-07-01T14:43:07;38.30;30.70
51253;DHT22;38936;47.808;19.936;2022-07-01T14:45:32;38.30;28.70
51253;DHT22;38936;47.808;19.936;2022-07-01T14:47:58;38.20;28.50
51253;DHT22;38936;47.808;19.936;2022-07-01T14:50:24;38.10;28.70
51253;DHT22;38936;47.808;19.936;2022-07-01T14:52:50;38.00;29.00
51253;DHT22;38936;47.808;19.936;2022-07-01T14:55:16;37.90;29.20
51253;DHT22;38936;47.808;19.936;2022-07-01T14:57:42;38.00;29.40
51253;DHT22;38936;47.808;19.936;2022-07-01T15:00:09;38.00;29.30
51253;DHT22;38936;47.808;19.936;2022-07-01T15:02:37;38.10;29.90
51253;DHT22;38936;47.808;19.936;2022-07-01T15:05:03;38.00;30.00
51253;DHT22;38936;47.808;19.936;2022-07-01T15:07:29;38.00;29.90
51253;DHT22;38936;47.808;19.936;2022-07-01T15:09:55;38.00;30.00
51253;DHT22;38936;47.808;19.936;2022-07-01T15:12:27;38.00;30.50
51253;DHT22;38936;47.808;19.936;2022-07-01T15:14:54;38.10;30.00
51253;DHT22;38936;47.808;19.936;2022-07-01T15:17:20;38.00;29.30
51253;DHT22;38936;47.808;19.936;2022-07-01T15:19:46;38.00;29.80
51253;DHT22;38936;47.808;19.936;2022-07-01T15:22:11;38.00;29.90
51253;DHT22;38936;47.808;19.936;2022-07-01T15:24:38;38.00;29.40
51253;DHT22;38936;47.808;19.936;2022-07-01T15:27:04;38.00;29.60
51253;DHT22;38936;47.808;19.936;2022-07-01T15:29:30;37.90;29.30
51253;DHT22;38936;47.808;19.936;2022-07-01T15:31:56;37.80;29.30
51253;DHT22;38936;47.808;19.936;2022-07-01T15:34:23;37.80;29.80
51253;DHT22;38936;47.808;19.936;2022-07-01T15:36:49;37.70;30.00
51253;DHT22;38936;47.808;19.936;2022-07-01T15:39:15;37.70;29.90
51253;DHT22;38936;47.808;19.936;2022-07-01T15:41:42;37.70;30.20
51253;DHT22;38936;47.808;19.936;2022-07-01T15:44:08;37.70;30.20
51253;DHT22;38936;47.808;19.936;2022-07-01T15:46:34;37.70;30.10